createdAt,value
2023-02-16T00:01:55.695Z,2.60
2023-02-16T00:04:30.540Z,2.60
2023-02-16T00:06:57.618Z,2.60
2023-02-16T00:09:25.238Z,2.60
2023-02-16T00:12:11.534Z,2.60
2023-02-16T00:14:39.865Z,2.60
2023-02-16T00:17:10.026Z,2.70
2023-02-16T00:19:38.893Z,2.70
2023-02-16T00:22:07.479Z,2.70
2023-02-16T00:24:35.024Z,2.60
2023-02-16T00:27:01.792Z,2.60
2023-02-16T00:29:32.978Z,2.60
2023-02-16T00:32:02.361Z,2.70
2023-02-16T00:34:33.708Z,2.60
2023-02-16T00:37:06.211Z,2.70
2023-02-16T00:39:33.306Z,2.70
2023-02-16T00:42:12.618Z,2.70
2023-02-16T00:44:45.321Z,2.70
2023-02-16T00:47:41.623Z,2.80
2023-02-16T00:50:19.764Z,2.70
2023-02-16T00:52:47.245Z,2.70
2023-02-16T00:55:16.636Z,2.70
2023-02-16T00:57:51.765Z,2.70
2023-02-16T01:00:25.043Z,2.80
2023-02-16T01:02:55.328Z,2.80
2023-02-16T01:05:22.849Z,2.70
2023-02-16T01:08:07.912Z,2.80
2023-02-16T01:10:54.536Z,2.70
2023-02-16T01:13:22.350Z,2.80
2023-02-16T01:15:49.016Z,2.80
2023-02-16T01:18:17.902Z,2.80
2023-02-16T01:20:45.495Z,2.80
2023-02-16T01:23:12.486Z,2.70
2023-02-16T01:25:40.127Z,2.70
2023-02-16T01:28:22.076Z,2.70
2023-02-16T01:30:49.554Z,2.70
2023-02-16T01:33:16.276Z,2.70
2023-02-16T01:35:43.185Z,2.60
2023-02-16T01:38:22.454Z,2.70
2023-02-16T01:41:06.356Z,2.60
2023-02-16T01:43:46.605Z,2.60
2023-02-16T01:46:32.902Z,2.60
2023-02-16T01:49:00.173Z,2.60
2023-02-16T01:51:34.166Z,2.60
2023-02-16T01:54:21.840Z,2.60
2023-02-16T01:56:54.493Z,2.60
2023-02-16T01:59:26.721Z,2.60
2023-02-16T02:01:58.076Z,2.50
2023-02-16T02:04:46.355Z,2.50
2023-02-16T02:07:25.416Z,2.40
2023-02-16T02:10:23.900Z,2.40
2023-02-16T02:13:05.160Z,2.30
2023-02-16T02:15:33.855Z,2.20
2023-02-16T02:18:01.082Z,2.10
2023-02-16T02:21:11.001Z,2.10
2023-02-16T02:23:54.462Z,2.10
2023-02-16T02:27:04.624Z,2.00
2023-02-16T02:29:51.582Z,2.00
2023-02-16T02:32:32.351Z,2.00
2023-02-16T02:35:22.477Z,1.90
2023-02-16T02:38:08.746Z,1.90
2023-02-16T02:40:49.765Z,1.90
2023-02-16T02:43:50.453Z,1.90
2023-02-16T02:46:29.134Z,2.00
2023-02-16T02:48:55.893Z,2.00
2023-02-16T02:51:28.687Z,2.00
2023-02-16T02:54:21.638Z,2.00
2023-02-16T02:57:16.565Z,2.00
2023-02-16T03:00:08.677Z,2.00
2023-02-16T03:02:38.016Z,2.10
2023-02-16T03:05:07.213Z,2.10
2023-02-16T03:07:47.743Z,2.10
2023-02-16T03:10:39.731Z,2.10
2023-02-16T03:13:11.876Z,2.10
2023-02-16T03:15:39.709Z,2.10
2023-02-16T03:18:28.065Z,2.10
2023-02-16T03:21:14.436Z,2.00
2023-02-16T03:24:02.027Z,2.00
2023-02-16T03:26:49.264Z,2.00
2023-02-16T03:29:18.213Z,2.00
2023-02-16T03:31:45.998Z,2.10
2023-02-16T03:34:13.455Z,2.00
2023-02-16T03:36:43.290Z,2.00
2023-02-16T03:39:10.731Z,2.00
2023-02-16T03:41:47.786Z,2.00
2023-02-16T03:44:14.928Z,2.00
2023-02-16T03:46:41.871Z,1.90
2023-02-16T03:49:08.937Z,2.00
2023-02-16T03:51:35.542Z,2.00
2023-02-16T03:54:02.242Z,2.00
2023-02-16T03:56:28.883Z,2.00
2023-02-16T03:58:55.545Z,2.00
2023-02-16T04:01:22.204Z,2.00
2023-02-16T04:03:48.857Z,2.00
2023-02-16T04:06:15.505Z,2.00
2023-02-16T04:08:42.126Z,2.00
2023-02-16T04:11:27.298Z,1.90
2023-02-16T04:13:54.127Z,2.00
2023-02-16T04:16:20.797Z,2.00
2023-02-16T04:18:47.494Z,1.90
2023-02-16T04:21:14.128Z,1.90
2023-02-16T04:23:40.894Z,1.90
2023-02-16T04:26:07.517Z,1.90
2023-02-16T04:28:34.091Z,1.90
2023-02-16T04:31:00.747Z,1.80
2023-02-16T04:33:27.473Z,1.80
2023-02-16T04:35:54.076Z,1.80
2023-02-16T04:38:20.711Z,1.80
2023-02-16T04:40:47.338Z,1.80
2023-02-16T04:43:14.012Z,1.80
2023-02-16T04:45:40.632Z,1.80
2023-02-16T04:48:07.254Z,1.80
2023-02-16T04:50:34.024Z,1.80
2023-02-16T04:53:00.723Z,1.80
2023-02-16T04:55:27.401Z,1.80
2023-02-16T04:57:53.967Z,1.70
2023-02-16T05:00:21.227Z,1.70
2023-02-16T05:02:47.951Z,1.70
2023-02-16T05:05:14.590Z,1.70
2023-02-16T05:07:41.227Z,1.70
2023-02-16T05:10:08.417Z,1.70
2023-02-16T05:12:53.603Z,1.70
2023-02-16T05:15:20.316Z,1.70
2023-02-16T05:17:46.930Z,1.60
2023-02-16T05:20:13.611Z,1.60
2023-02-16T05:22:40.263Z,1.60
2023-02-16T05:25:07.808Z,1.60
2023-02-16T05:27:34.429Z,1.60
2023-02-16T05:30:01.125Z,1.60
2023-02-16T05:32:27.823Z,1.50
2023-02-16T05:34:54.497Z,1.60
2023-02-16T05:37:21.146Z,1.60
2023-02-16T05:39:47.772Z,1.50
2023-02-16T05:42:14.377Z,1.50
2023-02-16T05:44:41.049Z,1.50
2023-02-16T05:47:08.045Z,1.40
2023-02-16T05:49:34.842Z,1.30
2023-02-16T05:52:01.629Z,1.30
2023-02-16T05:54:28.669Z,1.20
2023-02-16T05:56:55.699Z,1.20
2023-02-16T05:59:22.688Z,1.20
2023-02-16T06:01:51.903Z,1.10
2023-02-16T06:04:20.201Z,1.10
2023-02-16T06:06:47.098Z,1.00
2023-02-16T06:09:13.830Z,1.00
2023-02-16T06:11:40.606Z,1.10
2023-02-16T06:14:14.555Z,1.00
2023-02-16T06:16:43.086Z,1.00
2023-02-16T06:19:10.203Z,1.00
2023-02-16T06:21:37.873Z,1.00
2023-02-16T06:24:05.242Z,1.00
2023-02-16T06:26:31.934Z,1.00
2023-02-16T06:28:58.764Z,0.90
2023-02-16T06:31:26.195Z,0.90
2023-02-16T06:33:53.732Z,0.90
2023-02-16T06:36:20.756Z,0.90
2023-02-16T06:38:47.580Z,0.90
2023-02-16T06:41:30.959Z,0.80
2023-02-16T06:43:59.366Z,0.80
2023-02-16T06:46:26.456Z,0.80
2023-02-16T06:48:53.785Z,0.90
2023-02-16T06:51:20.711Z,0.90
2023-02-16T06:53:47.782Z,0.90
2023-02-16T06:56:14.398Z,0.90
2023-02-16T06:58:41.631Z,0.80
2023-02-16T07:01:08.495Z,0.80
2023-02-16T07:03:35.717Z,0.80
2023-02-16T07:06:02.712Z,0.80
2023-02-16T07:08:29.454Z,0.80
2023-02-16T07:10:56.028Z,0.80
2023-02-16T07:13:22.661Z,0.80
2023-02-16T07:15:49.961Z,0.80
2023-02-16T07:18:16.614Z,0.70
2023-02-16T07:20:43.378Z,0.80
2023-02-16T07:23:10.018Z,0.70
2023-02-16T07:25:37.248Z,0.80
2023-02-16T07:28:04.409Z,0.80
2023-02-16T07:30:31.212Z,0.80
2023-02-16T07:32:57.866Z,0.80
2023-02-16T07:35:24.455Z,0.90
2023-02-16T07:37:51.095Z,0.90
2023-02-16T07:40:17.783Z,0.90
2023-02-16T07:42:44.514Z,1.00
2023-02-16T07:45:11.225Z,1.00
2023-02-16T07:47:37.803Z,1.10
2023-02-16T07:50:05.308Z,1.00
2023-02-16T07:52:32.186Z,1.10
2023-02-16T07:54:59.206Z,1.10
2023-02-16T07:57:27.671Z,1.10
2023-02-16T07:59:54.968Z,1.20
2023-02-16T08:02:23.227Z,1.30
2023-02-16T08:04:52.660Z,1.40
2023-02-16T08:07:19.791Z,1.50
2023-02-16T08:09:46.749Z,1.60
2023-02-16T08:12:14.955Z,1.70
2023-02-16T08:14:41.846Z,1.70
2023-02-16T08:17:08.632Z,1.80
2023-02-16T08:19:36.994Z,2.10
2023-02-16T08:22:04.432Z,2.20
2023-02-16T08:24:31.127Z,2.30
2023-02-16T08:26:57.829Z,2.40
2023-02-16T08:29:24.465Z,2.50
2023-02-16T08:31:51.923Z,2.60
2023-02-16T08:34:20.078Z,2.80
2023-02-16T08:36:47.659Z,2.90
2023-02-16T08:39:17.970Z,3.10
2023-02-16T08:41:47.066Z,3.20
2023-02-16T08:44:15.529Z,3.30
2023-02-16T08:46:44.380Z,3.40
2023-02-16T08:49:11.720Z,3.50
2023-02-16T08:51:45.422Z,3.60
2023-02-16T08:54:17.123Z,3.80
2023-02-16T08:56:46.962Z,4.00
2023-02-16T08:59:15.951Z,4.20
2023-02-16T09:01:43.380Z,4.40
2023-02-16T09:04:10.421Z,4.50
2023-02-16T09:06:39.771Z,4.60
2023-02-16T09:09:08.634Z,4.70
2023-02-16T09:11:35.990Z,4.90
2023-02-16T09:14:03.812Z,5.00
2023-02-16T09:16:34.674Z,5.30
2023-02-16T09:19:01.896Z,5.30
2023-02-16T09:21:32.402Z,5.40
2023-02-16T09:24:02.185Z,5.50
2023-02-16T09:26:32.802Z,5.50
2023-02-16T09:29:00.508Z,5.60
2023-02-16T09:31:30.875Z,5.60
2023-02-16T09:34:04.201Z,5.60
2023-02-16T09:36:31.902Z,5.70
2023-02-16T09:38:59.504Z,5.80
2023-02-16T09:41:36.795Z,5.90
2023-02-16T09:44:25.693Z,6.00
2023-02-16T09:46:54.765Z,6.20
2023-02-16T09:49:35.057Z,6.40
2023-02-16T09:52:33.415Z,6.60
2023-02-16T09:55:01.797Z,6.80
2023-02-16T09:57:48.150Z,7.00
2023-02-16T10:00:44.798Z,7.30
2023-02-16T10:03:38.028Z,7.50
2023-02-16T10:06:23.507Z,7.80
2023-02-16T10:09:02.765Z,8.00
2023-02-16T10:11:50.885Z,8.30
2023-02-16T10:14:43.838Z,8.50
2023-02-16T10:17:37.765Z,8.60
2023-02-16T10:20:13.097Z,8.80
2023-02-16T10:22:45.435Z,8.90
2023-02-16T10:25:34.031Z,9.00
2023-02-16T10:28:23.005Z,9.10
2023-02-16T10:31:03.760Z,9.20
2023-02-16T10:33:53.424Z,9.50
2023-02-16T10:36:38.366Z,9.70
2023-02-16T10:39:19.473Z,10.10
2023-02-16T10:41:55.570Z,10.30
2023-02-16T10:44:37.297Z,10.60
2023-02-16T10:47:05.527Z,10.80
2023-02-16T10:49:33.019Z,11.00
2023-02-16T10:52:01.888Z,11.20
2023-02-16T10:54:30.678Z,11.40
2023-02-16T10:57:01.116Z,11.70
2023-02-16T10:59:37.861Z,11.90
2023-02-16T11:02:20.324Z,12.10
2023-02-16T11:04:52.339Z,12.40
2023-02-16T11:07:24.768Z,12.60
2023-02-16T11:09:54.804Z,12.80
2023-02-16T11:12:37.130Z,13.00
2023-02-16T11:15:21.296Z,13.20
2023-02-16T11:17:55.587Z,13.40
2023-02-16T11:20:34.626Z,13.50
2023-02-16T11:23:28.747Z,13.70
2023-02-16T11:26:10.054Z,13.80
2023-02-16T11:28:43.063Z,13.90
2023-02-16T11:31:09.658Z,14.00
2023-02-16T11:33:37.927Z,14.20
2023-02-16T11:36:25.914Z,14.30
2023-02-16T11:39:01.331Z,14.40
2023-02-16T11:41:29.119Z,14.50
2023-02-16T11:43:56.636Z,14.60
2023-02-16T11:46:24.241Z,14.70
2023-02-16T11:48:51.216Z,14.80
2023-02-16T11:51:31.878Z,14.80
2023-02-16T11:54:04.980Z,15.00
2023-02-16T11:56:34.364Z,15.10
2023-02-16T11:59:21.552Z,15.20
2023-02-16T12:02:20.850Z,15.40
2023-02-16T12:05:18.060Z,15.60
2023-02-16T12:08:15.402Z,15.70
2023-02-16T12:11:13.600Z,15.80
2023-02-16T12:13:45.198Z,15.80
2023-02-16T12:16:52.925Z,15.70
2023-02-16T12:19:39.873Z,15.70
2023-02-16T12:22:25.372Z,15.80
2023-02-16T12:24:59.752Z,15.80
2023-02-16T12:27:43.036Z,15.80
2023-02-16T12:30:19.845Z,15.80
2023-02-16T12:33:03.333Z,15.90
2023-02-16T12:35:32.695Z,16.00
2023-02-16T12:38:11.861Z,15.90
2023-02-16T12:41:21.432Z,16.00
2023-02-16T12:43:59.222Z,15.90
2023-02-16T12:46:40.407Z,15.90
2023-02-16T12:49:16.352Z,16.00
2023-02-16T12:51:49.784Z,16.10
2023-02-16T12:54:40.430Z,16.10
2023-02-16T12:57:14.316Z,16.00
2023-02-16T12:59:59.529Z,15.90
2023-02-16T13:02:40.550Z,15.90
2023-02-16T13:05:17.993Z,15.90
2023-02-16T13:07:51.435Z,16.00
2023-02-16T13:10:20.944Z,16.00
2023-02-16T13:13:00.628Z,15.90
2023-02-16T13:15:36.559Z,15.90
2023-02-16T13:18:26.564Z,15.90
2023-02-16T13:21:39.686Z,16.00
2023-02-16T13:24:24.232Z,16.00
2023-02-16T13:27:04.979Z,15.90
2023-02-16T13:30:05.846Z,15.80
2023-02-16T13:32:59.109Z,15.80
2023-02-16T13:35:44.474Z,15.80
2023-02-16T13:38:32.221Z,15.80
2023-02-16T13:41:35.327Z,15.90
2023-02-16T13:44:17.043Z,16.00
2023-02-16T13:46:50.018Z,16.00
2023-02-16T13:49:42.323Z,16.10
2023-02-16T13:52:11.805Z,16.10
2023-02-16T13:54:43.576Z,16.00
2023-02-16T13:57:15.041Z,16.00
2023-02-16T13:59:56.542Z,15.80
2023-02-16T14:02:54.546Z,15.70
2023-02-16T14:05:27.673Z,15.70
2023-02-16T14:08:30.776Z,15.70
2023-02-16T14:11:03.826Z,15.80
2023-02-16T14:13:42.825Z,15.70
2023-02-16T14:16:11.434Z,15.70
2023-02-16T14:18:45.845Z,15.60
2023-02-16T14:21:35.988Z,15.50
2023-02-16T14:24:03.851Z,15.30
2023-02-16T14:26:32.111Z,15.20
2023-02-16T14:29:08.047Z,15.20
2023-02-16T14:31:42.275Z,15.20
2023-02-16T14:34:37.297Z,15.20
2023-02-16T14:37:16.179Z,15.20
2023-02-16T14:40:06.967Z,15.10
2023-02-16T14:42:36.108Z,15.10
2023-02-16T14:45:29.128Z,15.00
2023-02-16T14:48:34.820Z,14.90
2023-02-16T14:51:33.661Z,14.90
2023-02-16T14:54:22.065Z,14.90
2023-02-16T14:56:52.791Z,14.80
2023-02-16T14:59:26.615Z,14.80
2023-02-16T15:01:53.282Z,14.70
2023-02-16T15:04:31.548Z,14.70
2023-02-16T15:07:03.166Z,14.70
2023-02-16T15:09:32.480Z,14.70
2023-02-16T15:12:21.827Z,14.70
2023-02-16T15:14:50.059Z,14.60
2023-02-16T15:17:25.132Z,14.60
2023-02-16T15:19:54.052Z,14.50
2023-02-16T15:22:23.378Z,14.40
2023-02-16T15:25:08.125Z,14.40
2023-02-16T15:27:34.780Z,14.30
2023-02-16T15:30:14.776Z,14.20
2023-02-16T15:32:48.297Z,14.10
2023-02-16T15:35:25.073Z,14.00
2023-02-16T15:38:01.073Z,14.00
2023-02-16T15:40:31.212Z,13.90
2023-02-16T15:43:27.826Z,13.80
2023-02-16T15:45:54.946Z,13.80
2023-02-16T15:48:33.619Z,13.80
2023-02-16T15:51:09.159Z,13.70
2023-02-16T15:53:55.346Z,13.70
2023-02-16T15:56:31.297Z,13.60
2023-02-16T15:59:01.598Z,13.50
2023-02-16T16:01:34.645Z,13.60
2023-02-16T16:04:20.643Z,13.50
2023-02-16T16:06:48.621Z,13.50
2023-02-16T16:09:29.737Z,13.50
2023-02-16T16:12:06.745Z,13.50
2023-02-16T16:14:36.771Z,13.50
2023-02-16T16:17:04.648Z,13.50
2023-02-16T16:19:35.645Z,13.50
2023-02-16T16:22:04.383Z,13.50
2023-02-16T16:24:38.820Z,13.50
2023-02-16T16:27:11.633Z,13.40
2023-02-16T16:29:46.763Z,13.40
2023-02-16T16:32:31.416Z,13.40
2023-02-16T16:34:58.041Z,13.30
2023-02-16T16:37:36.693Z,13.20
2023-02-16T16:40:20.526Z,13.10
2023-02-16T16:43:02.317Z,13.00
2023-02-16T16:45:36.617Z,13.00
2023-02-16T16:48:17.656Z,12.90
2023-02-16T16:50:44.409Z,12.80
2023-02-16T16:53:29.527Z,12.80
2023-02-16T16:55:57.679Z,12.80
2023-02-16T16:58:24.633Z,12.70
2023-02-16T17:00:51.201Z,12.60
2023-02-16T17:03:18.421Z,12.60
2023-02-16T17:05:46.024Z,12.50
2023-02-16T17:08:12.782Z,12.50
2023-02-16T17:10:41.277Z,12.50
2023-02-16T17:13:12.756Z,12.40
2023-02-16T17:15:44.816Z,12.30
2023-02-16T17:18:20.867Z,12.30
2023-02-16T17:20:48.278Z,12.30
2023-02-16T17:23:17.952Z,12.20
2023-02-16T17:25:44.797Z,12.10
2023-02-16T17:28:12.441Z,12.00
2023-02-16T17:30:39.187Z,12.00
2023-02-16T17:33:07.110Z,12.00
2023-02-16T17:35:35.527Z,11.90
2023-02-16T17:38:08.296Z,11.90
2023-02-16T17:40:35.002Z,11.80
2023-02-16T17:43:01.816Z,11.80
2023-02-16T17:45:28.528Z,11.80
2023-02-16T17:47:55.129Z,11.80
2023-02-16T17:50:21.716Z,11.70
2023-02-16T17:52:48.331Z,11.70
2023-02-16T17:55:15.478Z,11.70
2023-02-16T17:57:42.312Z,11.70
2023-02-16T18:00:15.776Z,11.60
2023-02-16T18:02:42.373Z,11.60
2023-02-16T18:05:09.042Z,11.60
2023-02-16T18:07:35.964Z,11.60
2023-02-16T18:10:03.269Z,11.60
2023-02-16T18:12:29.900Z,11.60
2023-02-16T18:14:56.833Z,11.60
2023-02-16T18:17:23.459Z,11.50
2023-02-16T18:19:50.125Z,11.50
2023-02-16T18:22:16.694Z,11.50
2023-02-16T18:24:44.348Z,11.50
2023-02-16T18:27:11.312Z,11.40
2023-02-16T18:29:37.975Z,11.40
2023-02-16T18:32:04.799Z,11.30
2023-02-16T18:34:32.765Z,11.30
2023-02-16T18:36:59.396Z,11.30
2023-02-16T18:39:26.028Z,11.30
2023-02-16T18:41:52.610Z,11.30
2023-02-16T18:44:19.328Z,11.30
2023-02-16T18:46:45.927Z,11.30
2023-02-16T18:49:12.504Z,11.30
2023-02-16T18:51:39.152Z,11.30
2023-02-16T18:54:05.775Z,11.30
2023-02-16T18:56:35.295Z,11.30
2023-02-16T18:59:01.890Z,11.30
2023-02-16T19:01:31.284Z,11.20
2023-02-16T19:03:58.121Z,11.20
2023-02-16T19:06:24.797Z,11.20
2023-02-16T19:08:51.442Z,11.20
2023-02-16T19:11:19.899Z,11.20
2023-02-16T19:13:47.910Z,11.20
2023-02-16T19:16:16.448Z,11.20
2023-02-16T19:18:43.237Z,11.20
2023-02-16T19:21:12.991Z,11.20
2023-02-16T19:23:40.103Z,11.30
2023-02-16T19:26:11.086Z,11.30
2023-02-16T19:28:38.984Z,11.30
2023-02-16T19:31:08.918Z,11.30
2023-02-16T19:33:35.595Z,11.30
2023-02-16T19:36:04.477Z,11.30
2023-02-16T19:38:31.631Z,11.30
2023-02-16T19:40:58.976Z,11.40
2023-02-16T19:43:26.101Z,11.50
2023-02-16T19:45:52.848Z,11.50
2023-02-16T19:48:19.515Z,11.60
2023-02-16T19:50:46.449Z,11.60
2023-02-16T19:53:13.057Z,11.60
2023-02-16T19:55:41.754Z,11.70
2023-02-16T19:58:08.710Z,11.80
2023-02-16T20:00:36.418Z,11.80
2023-02-16T20:03:03.197Z,11.80
2023-02-16T20:05:29.849Z,11.90
2023-02-16T20:07:56.450Z,12.00
2023-02-16T20:10:23.086Z,12.00
2023-02-16T20:12:49.728Z,12.00
2023-02-16T20:15:16.448Z,12.10
2023-02-16T20:17:43.036Z,12.00
2023-02-16T20:20:10.057Z,12.10
2023-02-16T20:22:36.725Z,12.10
2023-02-16T20:25:03.719Z,12.10
2023-02-16T20:27:30.459Z,12.20
2023-02-16T20:29:57.137Z,12.20
2023-02-16T20:32:27.742Z,12.20
2023-02-16T20:34:54.369Z,12.20
2023-02-16T20:37:21.742Z,12.20
2023-02-16T20:39:48.452Z,12.20
2023-02-16T20:42:15.060Z,12.20
2023-02-16T20:44:41.768Z,12.20
2023-02-16T20:47:10.129Z,12.20
2023-02-16T20:49:36.836Z,12.30
2023-02-16T20:52:03.452Z,12.30
2023-02-16T20:54:30.293Z,12.30
2023-02-16T20:56:56.907Z,12.30
2023-02-16T20:59:23.498Z,12.30
2023-02-16T21:01:52.365Z,12.30
2023-02-16T21:04:19.528Z,12.30
2023-02-16T21:06:46.270Z,12.40
2023-02-16T21:09:12.952Z,12.30
2023-02-16T21:11:40.232Z,12.30
2023-02-16T21:14:08.612Z,12.30
2023-02-16T21:16:35.367Z,12.30
2023-02-16T21:19:04.102Z,12.30
2023-02-16T21:21:32.189Z,12.30
2023-02-16T21:23:58.848Z,12.30
2023-02-16T21:26:26.046Z,12.30
2023-02-16T21:28:52.946Z,12.30
2023-02-16T21:31:22.252Z,12.20
2023-02-16T21:33:49.549Z,12.20
2023-02-16T21:36:19.266Z,12.20
2023-02-16T21:38:46.862Z,12.20
2023-02-16T21:41:25.865Z,12.20
2023-02-16T21:44:04.061Z,12.20
2023-02-16T21:46:50.937Z,12.20
2023-02-16T21:49:20.077Z,12.20
2023-02-16T21:51:48.174Z,12.10
2023-02-16T21:54:17.174Z,12.20
2023-02-16T21:56:50.958Z,12.10
2023-02-16T21:59:19.111Z,12.10
2023-02-16T22:01:50.760Z,12.20
2023-02-16T22:04:19.481Z,12.10
2023-02-16T22:06:47.942Z,12.10
2023-02-16T22:09:17.859Z,12.10
2023-02-16T22:11:45.457Z,12.10
2023-02-16T22:14:12.362Z,12.10
2023-02-16T22:16:39.503Z,12.10
2023-02-16T22:19:10.483Z,12.10
2023-02-16T22:21:39.141Z,12.00
2023-02-16T22:24:06.153Z,12.00
2023-02-16T22:26:35.358Z,12.00
2023-02-16T22:29:03.656Z,11.90
2023-02-16T22:31:30.432Z,12.00
2023-02-16T22:34:06.685Z,11.90
2023-02-16T22:36:33.845Z,11.90
2023-02-16T22:39:00.472Z,11.90
2023-02-16T22:41:27.374Z,11.90
2023-02-16T22:43:59.601Z,11.90
2023-02-16T22:46:27.538Z,11.90
2023-02-16T22:48:58.258Z,11.90
2023-02-16T22:51:27.655Z,11.90
2023-02-16T22:53:54.310Z,11.80
2023-02-16T22:56:21.100Z,11.80
2023-02-16T22:58:48.414Z,11.80
2023-02-16T23:01:20.165Z,11.80
2023-02-16T23:03:53.693Z,11.80
2023-02-16T23:06:22.456Z,11.80
2023-02-16T23:08:57.667Z,11.80
2023-02-16T23:11:25.957Z,11.80
2023-02-16T23:13:52.795Z,11.70
2023-02-16T23:16:22.295Z,11.70
2023-02-16T23:18:49.252Z,11.80
2023-02-16T23:21:25.326Z,11.80
2023-02-16T23:23:52.950Z,11.80
2023-02-16T23:26:21.578Z,11.80
2023-02-16T23:28:53.407Z,11.80
2023-02-16T23:31:20.967Z,11.80
2023-02-16T23:33:48.160Z,11.80
2023-02-16T23:36:14.954Z,11.80
2023-02-16T23:38:41.785Z,11.80
2023-02-16T23:41:11.683Z,11.80
2023-02-16T23:43:38.441Z,11.80
2023-02-16T23:46:06.022Z,11.80
2023-02-16T23:48:33.509Z,11.90
2023-02-16T23:51:00.122Z,11.90
2023-02-16T23:53:28.322Z,11.90
2023-02-16T23:56:07.133Z,12.00
2023-02-16T23:58:37.241Z,12.00
